sensor_id;sensor_type;location;lat;lon;timestamp;temperature;humidity
59660;DHT22;45534;52.690;6.268;2023-11-21T00:01:19;8.40;99.90
59660;DHT22;45534;52.690;6.268;2023-11-21T00:03:44;8.40;99.90
59660;DHT22;45534;52.690;6.268;2023-11-21T00:06:10;8.40;99.90
59660;DHT22;45534;52.690;6.268;2023-11-21T00:08:36;8.40;99.90
59660;DHT22;45534;52.690;6.268;2023-11-21T00:11:02;8.50;99.90
59660;DHT22;45534;52.690;6.268;2023-11-21T00:13:31;8.50;99.90
59660;DHT22;45534;52.690;6.268;2023-11-21T00:15:57;8.40;99.90
59660;DHT22;45534;52.690;6.268;2023-11-21T00:18:23;8.50;99.90
59660;DHT22;45534;52.690;6.268;2023-11-21T00:20:48;8.50;99.90
59660;DHT22;45534;52.690;6.268;2023-11-21T00:23:14;8.50;99.90
59660;DHT22;45534;52.690;6.268;2023-11-21T00:25:39;8.50;99.90
59660;DHT22;45534;52.690;6.268;2023-11-21T00:28:05;8.50;99.90
59660;DHT22;45534;52.690;6.268;2023-11-21T00:30:31;8.50;99.90
59660;DHT22;45534;52.690;6.268;2023-11-21T00:32:57;8.50;99.90
59660;DHT22;45534;52.690;6.268;2023-11-21T00:35:23;8.50;99.90
59660;DHT22;45534;52.690;6.268;2023-11-21T00:37:48;8.50;99.90
59660;DHT22;45534;52.690;6.268;2023-11-21T00:40:15;8.60;99.90
59660;DHT22;45534;52.690;6.268;2023-11-21T00:42:41;8.60;99.90
59660;DHT22;45534;52.690;6.268;2023-11-21T00:45:07;8.50;99.90
59660;DHT22;45534;52.690;6.268;2023-11-21T00:47:33;8.60;99.90
59660;DHT22;45534;52.690;6.268;2023-11-21T00:49:59;8.60;99.90
59660;DHT22;45534;52.690;6.268;2023-11-21T00:52:25;8.50;99.90
59660;DHT22;45534;52.690;6.268;2023-11-21T00:54:50;8.50;99.90
59660;DHT22;45534;52.690;6.268;2023-11-21T00:57:16;8.60;99.90
59660;DHT22;45534;52.690;6.268;2023-11-21T00:59:42;8.60;99.90
59660;DHT22;45534;52.690;6.268;2023-11-21T01:02:07;8.60;99.90
59660;DHT22;45534;52.690;6.268;2023-11-21T01:04:36;8.60;99.90
59660;DHT22;45534;52.690;6.268;2023-11-21T01:07:01;8.60;99.90
59660;DHT22;45534;52.690;6.268;2023-11-21T01:09:27;8.60;99.90
59660;DHT22;45534;52.690;6.268;2023-11-21T01:11:53;8.60;99.90
59660;DHT22;45534;52.690;6.268;2023-11-21T01:14:19;8.60;99.90
59660;DHT22;45534;52.690;6.268;2023-11-21T01:16:45;8.60;99.90
59660;DHT22;45534;52.690;6.268;2023-11-21T01:19:11;8.60;99.90
59660;DHT22;45534;52.690;6.268;2023-11-21T01:21:36;8.60;99.90
59660;DHT22;45534;52.690;6.268;2023-11-21T01:24:02;8.60;99.90
59660;DHT22;45534;52.690;6.268;2023-11-21T01:26:29;8.60;99.90
59660;DHT22;45534;52.690;6.268;2023-11-21T01:28:54;8.70;99.90
59660;DHT22;45534;52.690;6.268;2023-11-21T01:31:20;8.60;99.90
59660;DHT22;45534;52.690;6.268;2023-11-21T01:33:46;8.70;99.90
59660;DHT22;45534;52.690;6.268;2023-11-21T01:36:12;8.60;99.90
59660;DHT22;45534;52.690;6.268;2023-11-21T01:38:37;8.60;99.90
59660;DHT22;45534;52.690;6.268;2023-11-21T01:41:04;8.70;99.90
59660;DHT22;45534;52.690;6.268;2023-11-21T01:43:30;8.60;99.90
59660;DHT22;45534;52.690;6.268;2023-11-21T01:45:57;8.60;99.90
59660;DHT22;45534;52.690;6.268;2023-11-21T01:48:24;8.60;99.90
59660;DHT22;45534;52.690;6.268;2023-11-21T01:50:51;8.70;99.90
59660;DHT22;45534;52.690;6.268;2023-11-21T01:53:17;8.70;99.90
59660;DHT22;45534;52.690;6.268;2023-11-21T01:55:45;8.70;99.90
59660;DHT22;45534;52.690;6.268;2023-11-21T01:58:11;8.70;99.90
59660;DHT22;45534;52.690;6.268;2023-11-21T02:00:38;8.70;99.90
59660;DHT22;45534;52.690;6.268;2023-11-21T02:03:04;8.70;99.90
59660;DHT22;45534;52.690;6.268;2023-11-21T02:05:30;8.70;99.90
59660;DHT22;45534;52.690;6.268;2023-11-21T02:07:55;8.70;99.90
59660;DHT22;45534;52.690;6.268;2023-11-21T02:10:22;8.70;99.90
59660;DHT22;45534;52.690;6.268;2023-11-21T02:12:49;8.70;99.90
59660;DHT22;45534;52.690;6.268;2023-11-21T02:15:18;8.70;99.90
59660;DHT22;45534;52.690;6.268;2023-11-21T02:17:47;8.70;99.90
59660;DHT22;45534;52.690;6.268;2023-11-21T02:20:17;8.70;99.90
59660;DHT22;45534;52.690;6.268;2023-11-21T02:22:51;8.70;99.90
59660;DHT22;45534;52.690;6.268;2023-11-21T02:25:33;8.70;99.90
59660;DHT22;45534;52.690;6.268;2023-11-21T02:28:03;8.70;99.90
59660;DHT22;45534;52.690;6.268;2023-11-21T02:30:29;8.70;99.90
59660;DHT22;45534;52.690;6.268;2023-11-21T02:32:57;8.70;99.90
59660;DHT22;45534;52.690;6.268;2023-11-21T02:35:23;8.70;99.90
59660;DHT22;45534;52.690;6.268;2023-11-21T02:37:49;8.70;99.90
59660;DHT22;45534;52.690;6.268;2023-11-21T02:40:16;8.70;99.90
59660;DHT22;45534;52.690;6.268;2023-11-21T02:42:49;8.70;99.90
59660;DHT22;45534;52.690;6.268;2023-11-21T02:45:17;8.70;99.90
59660;DHT22;45534;52.690;6.268;2023-11-21T02:47:43;8.70;99.90
59660;DHT22;45534;52.690;6.268;2023-11-21T02:50:09;8.70;99.90
59660;DHT22;45534;52.690;6.268;2023-11-21T02:52:35;8.70;99.90
59660;DHT22;45534;52.690;6.268;2023-11-21T02:55:02;8.70;99.90
59660;DHT22;45534;52.690;6.268;2023-11-21T02:57:28;8.70;99.90
59660;DHT22;45534;52.690;6.268;2023-11-21T02:59:54;8.70;99.90
59660;DHT22;45534;52.690;6.268;2023-11-21T03:02:20;8.70;99.90
59660;DHT22;45534;52.690;6.268;2023-11-21T03:04:46;8.70;99.90
59660;DHT22;45534;52.690;6.268;2023-11-21T03:07:13;8.70;99.90
59660;DHT22;45534;52.690;6.268;2023-11-21T03:09:39;8.70;99.90
59660;DHT22;45534;52.690;6.268;2023-11-21T03:12:05;8.70;99.90
59660;DHT22;45534;52.690;6.268;2023-11-21T03:14:31;8.70;99.90
59660;DHT22;45534;52.690;6.268;2023-11-21T03:16:57;8.70;99.90
59660;DHT22;45534;52.690;6.268;2023-11-21T03:19:23;8.70;99.90
59660;DHT22;45534;52.690;6.268;2023-11-21T03:21:49;8.70;99.90
59660;DHT22;45534;52.690;6.268;2023-11-21T03:24:14;8.70;99.90
59660;DHT22;45534;52.690;6.268;2023-11-21T03:26:48;8.70;99.90
59660;DHT22;45534;52.690;6.268;2023-11-21T03:29:14;8.80;99.90
59660;DHT22;45534;52.690;6.268;2023-11-21T03:31:40;8.80;99.90
59660;DHT22;45534;52.690;6.268;2023-11-21T03:34:06;8.80;99.90
59660;DHT22;45534;52.690;6.268;2023-11-21T03:36:35;8.80;99.90
59660;DHT22;45534;52.690;6.268;2023-11-21T03:39:02;8.80;99.90
59660;DHT22;45534;52.690;6.268;2023-11-21T03:41:27;8.80;99.90
59660;DHT22;45534;52.690;6.268;2023-11-21T03:43:53;8.80;99.90
59660;DHT22;45534;52.690;6.268;2023-11-21T03:46:19;8.80;99.90
59660;DHT22;45534;52.690;6.268;2023-11-21T03:48:44;8.80;99.90
59660;DHT22;45534;52.690;6.268;2023-11-21T03:51:10;8.80;99.90
59660;DHT22;45534;52.690;6.268;2023-11-21T03:53:36;8.80;99.90
59660;DHT22;45534;52.690;6.268;2023-11-21T03:56:02;8.80;99.90
59660;DHT22;45534;52.690;6.268;2023-11-21T03:58:29;8.80;99.90
59660;DHT22;45534;52.690;6.268;2023-11-21T04:00:55;8.80;99.90
59660;DHT22;45534;52.690;6.268;2023-11-21T04:03:20;8.80;99.90
59660;DHT22;45534;52.690;6.268;2023-11-21T04:05:46;8.80;99.90
59660;DHT22;45534;52.690;6.268;2023-11-21T04:08:12;8.80;99.90
59660;DHT22;45534;52.690;6.268;2023-11-21T04:10:38;8.80;99.90
59660;DHT22;45534;52.690;6.268;2023-11-21T04:13:05;8.80;99.90
59660;DHT22;45534;52.690;6.268;2023-11-21T04:15:32;8.90;99.90
59660;DHT22;45534;52.690;6.268;2023-11-21T04:17:58;8.90;99.90
59660;DHT22;45534;52.690;6.268;2023-11-21T04:20:24;8.80;99.90
59660;DHT22;45534;52.690;6.268;2023-11-21T04:22:50;8.90;99.90
59660;DHT22;45534;52.690;6.268;2023-11-21T04:25:16;8.90;99.90
59660;DHT22;45534;52.690;6.268;2023-11-21T04:27:44;8.90;99.90
59660;DHT22;45534;52.690;6.268;2023-11-21T04:30:13;8.90;99.90
59660;DHT22;45534;52.690;6.268;2023-11-21T04:32:39;8.90;99.90
59660;DHT22;45534;52.690;6.268;2023-11-21T04:35:05;8.90;99.90
59660;DHT22;45534;52.690;6.268;2023-11-21T04:37:31;8.90;99.90
59660;DHT22;45534;52.690;6.268;2023-11-21T04:39:57;8.90;99.90
59660;DHT22;45534;52.690;6.268;2023-11-21T04:42:23;8.90;99.90
59660;DHT22;45534;52.690;6.268;2023-11-21T04:44:49;8.90;99.90
59660;DHT22;45534;52.690;6.268;2023-11-21T04:47:15;8.90;99.90
59660;DHT22;45534;52.690;6.268;2023-11-21T04:49:43;8.90;99.90
59660;DHT22;45534;52.690;6.268;2023-11-21T04:52:09;8.90;99.90
59660;DHT22;45534;52.690;6.268;2023-11-21T04:54:35;8.90;99.90
59660;DHT22;45534;52.690;6.268;2023-11-21T04:57:01;8.90;99.90
59660;DHT22;45534;52.690;6.268;2023-11-21T04:59:27;8.90;99.90
59660;DHT22;45534;52.690;6.268;2023-11-21T05:01:53;9.00;99.90
59660;DHT22;45534;52.690;6.268;2023-11-21T05:04:19;9.00;99.90
59660;DHT22;45534;52.690;6.268;2023-11-21T05:06:46;9.00;99.90
59660;DHT22;45534;52.690;6.268;2023-11-21T05:09:13;9.00;99.90
59660;DHT22;45534;52.690;6.268;2023-11-21T05:11:40;9.00;99.90
59660;DHT22;45534;52.690;6.268;2023-11-21T05:14:06;9.00;99.90
59660;DHT22;45534;52.690;6.268;2023-11-21T05:16:32;9.00;99.90
59660;DHT22;45534;52.690;6.268;2023-11-21T05:18:59;9.00;99.90
59660;DHT22;45534;52.690;6.268;2023-11-21T05:21:27;9.00;99.90
59660;DHT22;45534;52.690;6.268;2023-11-21T05:23:52;9.00;99.90
59660;DHT22;45534;52.690;6.268;2023-11-21T05:26:18;9.00;99.90
59660;DHT22;45534;52.690;6.268;2023-11-21T05:28:44;9.00;99.90
59660;DHT22;45534;52.690;6.268;2023-11-21T05:31:09;9.00;99.90
59660;DHT22;45534;52.690;6.268;2023-11-21T05:33:36;9.00;99.90
59660;DHT22;45534;52.690;6.268;2023-11-21T05:36:02;9.00;99.90
59660;DHT22;45534;52.690;6.268;2023-11-21T05:38:28;9.00;99.90
59660;DHT22;45534;52.690;6.268;2023-11-21T05:40:54;9.00;99.90
59660;DHT22;45534;52.690;6.268;2023-11-21T05:43:20;9.00;99.90
59660;DHT22;45534;52.690;6.268;2023-11-21T05:45:46;9.00;99.90
59660;DHT22;45534;52.690;6.268;2023-11-21T05:48:12;9.00;99.90
59660;DHT22;45534;52.690;6.268;2023-11-21T05:50:37;9.10;99.90
59660;DHT22;45534;52.690;6.268;2023-11-21T05:53:03;9.10;99.90
59660;DHT22;45534;52.690;6.268;2023-11-21T05:55:29;9.10;99.90
59660;DHT22;45534;52.690;6.268;2023-11-21T05:57:55;9.10;99.90
59660;DHT22;45534;52.690;6.268;2023-11-21T06:00:21;9.10;99.90
59660;DHT22;45534;52.690;6.268;2023-11-21T06:02:53;9.10;99.90
59660;DHT22;45534;52.690;6.268;2023-11-21T06:05:23;9.10;99.90
59660;DHT22;45534;52.690;6.268;2023-11-21T06:07:50;9.10;99.90
59660;DHT22;45534;52.690;6.268;2023-11-21T06:10:16;9.10;99.90
59660;DHT22;45534;52.690;6.268;2023-11-21T06:12:43;9.10;99.90
59660;DHT22;45534;52.690;6.268;2023-11-21T06:15:10;9.10;99.90
59660;DHT22;45534;52.690;6.268;2023-11-21T06:17:40;9.10;99.90
59660;DHT22;45534;52.690;6.268;2023-11-21T06:20:08;9.10;99.90
59660;DHT22;45534;52.690;6.268;2023-11-21T06:22:41;9.10;99.90
59660;DHT22;45534;52.690;6.268;2023-11-21T06:25:07;9.10;99.90
59660;DHT22;45534;52.690;6.268;2023-11-21T06:27:42;9.10;99.90
59660;DHT22;45534;52.690;6.268;2023-11-21T06:30:08;9.10;99.90
59660;DHT22;45534;52.690;6.268;2023-11-21T06:32:35;9.10;99.90
59660;DHT22;45534;52.690;6.268;2023-11-21T06:35:02;9.00;99.90
59660;DHT22;45534;52.690;6.268;2023-11-21T06:37:30;9.10;99.90
59660;DHT22;45534;52.690;6.268;2023-11-21T06:39:56;9.00;99.90
59660;DHT22;45534;52.690;6.268;2023-11-21T06:42:23;9.10;99.90
59660;DHT22;45534;52.690;6.268;2023-11-21T06:44:49;9.00;99.90
59660;DHT22;45534;52.690;6.268;2023-11-21T06:47:17;9.00;99.90
59660;DHT22;45534;52.690;6.268;2023-11-21T06:49:46;9.00;99.90
59660;DHT22;45534;52.690;6.268;2023-11-21T06:52:14;9.00;99.90
59660;DHT22;45534;52.690;6.268;2023-11-21T06:54:39;9.00;99.90
59660;DHT22;45534;52.690;6.268;2023-11-21T06:57:05;9.00;99.90
59660;DHT22;45534;52.690;6.268;2023-11-21T06:59:31;9.00;99.90
59660;DHT22;45534;52.690;6.268;2023-11-21T07:01:57;9.00;99.90
59660;DHT22;45534;52.690;6.268;2023-11-21T07:04:23;9.00;99.90
59660;DHT22;45534;52.690;6.268;2023-11-21T07:06:49;9.00;99.90
59660;DHT22;45534;52.690;6.268;2023-11-21T07:09:15;9.00;99.90
59660;DHT22;45534;52.690;6.268;2023-11-21T07:11:41;9.00;99.90
59660;DHT22;45534;52.690;6.268;2023-11-21T07:14:07;9.00;99.90
59660;DHT22;45534;52.690;6.268;2023-11-21T07:16:36;9.00;99.90
59660;DHT22;45534;52.690;6.268;2023-11-21T07:19:06;9.00;99.90
59660;DHT22;45534;52.690;6.268;2023-11-21T07:21:32;9.00;99.90
59660;DHT22;45534;52.690;6.268;2023-11-21T07:24:00;9.00;99.90
59660;DHT22;45534;52.690;6.268;2023-11-21T07:26:27;9.00;99.90
59660;DHT22;45534;52.690;6.268;2023-11-21T07:28:53;9.00;99.90
59660;DHT22;45534;52.690;6.268;2023-11-21T07:31:19;9.00;99.90
59660;DHT22;45534;52.690;6.268;2023-11-21T07:33:45;9.00;99.90
59660;DHT22;45534;52.690;6.268;2023-11-21T07:36:13;9.00;99.90
59660;DHT22;45534;52.690;6.268;2023-11-21T07:38:39;9.10;99.90
59660;DHT22;45534;52.690;6.268;2023-11-21T07:41:05;9.10;99.90
59660;DHT22;45534;52.690;6.268;2023-11-21T07:43:36;9.10;99.90
59660;DHT22;45534;52.690;6.268;2023-11-21T07:46:03;9.10;99.90
59660;DHT22;45534;52.690;6.268;2023-11-21T07:48:32;9.10;99.90
59660;DHT22;45534;52.690;6.268;2023-11-21T07:50:58;9.10;99.90
59660;DHT22;45534;52.690;6.268;2023-11-21T07:53:24;9.10;99.90
59660;DHT22;45534;52.690;6.268;2023-11-21T07:55:57;9.10;99.90
59660;DHT22;45534;52.690;6.268;2023-11-21T07:58:23;9.10;99.90
59660;DHT22;45534;52.690;6.268;2023-11-21T08:00:49;9.10;99.90
59660;DHT22;45534;52.690;6.268;2023-11-21T08:03:15;9.20;99.90
59660;DHT22;45534;52.690;6.268;2023-11-21T08:05:42;9.20;99.90
59660;DHT22;45534;52.690;6.268;2023-11-21T08:08:08;9.20;99.90
59660;DHT22;45534;52.690;6.268;2023-11-21T08:10:34;9.20;99.90
59660;DHT22;45534;52.690;6.268;2023-11-21T08:13:01;9.30;99.90
59660;DHT22;45534;52.690;6.268;2023-11-21T08:15:27;9.30;99.90
59660;DHT22;45534;52.690;6.268;2023-11-21T08:17:53;9.30;99.90
59660;DHT22;45534;52.690;6.268;2023-11-21T08:20:19;9.30;99.90
59660;DHT22;45534;52.690;6.268;2023-11-21T08:22:45;9.40;99.90
59660;DHT22;45534;52.690;6.268;2023-11-21T08:25:11;9.40;99.90
59660;DHT22;45534;52.690;6.268;2023-11-21T08:27:37;9.50;99.90
59660;DHT22;45534;52.690;6.268;2023-11-21T08:30:03;9.50;99.90
59660;DHT22;45534;52.690;6.268;2023-11-21T08:32:29;9.50;99.90
59660;DHT22;45534;52.690;6.268;2023-11-21T08:35:01;9.50;99.90
59660;DHT22;45534;52.690;6.268;2023-11-21T08:37:27;9.50;99.90
59660;DHT22;45534;52.690;6.268;2023-11-21T08:39:54;9.50;99.90
59660;DHT22;45534;52.690;6.268;2023-11-21T08:42:20;9.50;99.90
59660;DHT22;45534;52.690;6.268;2023-11-21T08:44:45;9.50;99.90
59660;DHT22;45534;52.690;6.268;2023-11-21T08:47:11;9.50;99.90
59660;DHT22;45534;52.690;6.268;2023-11-21T08:49:37;9.40;99.90
59660;DHT22;45534;52.690;6.268;2023-11-21T08:52:03;9.40;99.90
59660;DHT22;45534;52.690;6.268;2023-11-21T08:54:31;9.30;99.90
59660;DHT22;45534;52.690;6.268;2023-11-21T08:56:57;9.30;99.90
59660;DHT22;45534;52.690;6.268;2023-11-21T08:59:24;9.30;99.90
59660;DHT22;45534;52.690;6.268;2023-11-21T09:01:50;9.30;99.90
59660;DHT22;45534;52.690;6.268;2023-11-21T09:04:16;9.30;99.90
59660;DHT22;45534;52.690;6.268;2023-11-21T09:06:42;9.30;99.90
59660;DHT22;45534;52.690;6.268;2023-11-21T09:09:08;9.30;99.90
59660;DHT22;45534;52.690;6.268;2023-11-21T09:11:36;9.30;99.90
59660;DHT22;45534;52.690;6.268;2023-11-21T09:14:02;9.30;99.90
59660;DHT22;45534;52.690;6.268;2023-11-21T09:16:29;9.40;99.90
59660;DHT22;45534;52.690;6.268;2023-11-21T09:18:54;9.40;99.90
59660;DHT22;45534;52.690;6.268;2023-11-21T09:21:20;9.40;99.90
59660;DHT22;45534;52.690;6.268;2023-11-21T09:23:46;9.40;99.90
59660;DHT22;45534;52.690;6.268;2023-11-21T09:26:12;9.40;99.90
59660;DHT22;45534;52.690;6.268;2023-11-21T09:28:38;9.40;99.90
59660;DHT22;45534;52.690;6.268;2023-11-21T09:31:05;9.50;99.90
59660;DHT22;45534;52.690;6.268;2023-11-21T09:33:31;9.40;99.90
59660;DHT22;45534;52.690;6.268;2023-11-21T09:35:57;9.40;99.90
59660;DHT22;45534;52.690;6.268;2023-11-21T09:38:23;9.40;99.90
59660;DHT22;45534;52.690;6.268;2023-11-21T09:40:49;9.50;99.90
59660;DHT22;45534;52.690;6.268;2023-11-21T09:43:18;9.50;99.90
59660;DHT22;45534;52.690;6.268;2023-11-21T09:45:46;9.50;99.90
59660;DHT22;45534;52.690;6.268;2023-11-21T09:48:14;9.50;99.90
59660;DHT22;45534;52.690;6.268;2023-11-21T09:50:42;9.60;99.90
59660;DHT22;45534;52.690;6.268;2023-11-21T09:53:17;9.60;99.90
59660;DHT22;45534;52.690;6.268;2023-11-21T09:55:45;9.60;99.90
59660;DHT22;45534;52.690;6.268;2023-11-21T09:58:11;9.50;99.90
59660;DHT22;45534;52.690;6.268;2023-11-21T10:00:43;9.50;99.90
59660;DHT22;45534;52.690;6.268;2023-11-21T10:03:09;9.40;99.90
59660;DHT22;45534;52.690;6.268;2023-11-21T10:05:36;9.40;99.90
59660;DHT22;45534;52.690;6.268;2023-11-21T10:08:07;9.30;99.90
59660;DHT22;45534;52.690;6.268;2023-11-21T10:10:33;9.30;99.90
59660;DHT22;45534;52.690;6.268;2023-11-21T10:13:02;9.20;99.90
59660;DHT22;45534;52.690;6.268;2023-11-21T10:15:29;9.10;99.90
59660;DHT22;45534;52.690;6.268;2023-11-21T10:17:56;9.10;99.90
59660;DHT22;45534;52.690;6.268;2023-11-21T10:20:25;9.10;99.90
59660;DHT22;45534;52.690;6.268;2023-11-21T10:22:52;9.10;99.90
59660;DHT22;45534;52.690;6.268;2023-11-21T10:25:17;9.10;99.90
59660;DHT22;45534;52.690;6.268;2023-11-21T10:27:48;9.10;99.90
59660;DHT22;45534;52.690;6.268;2023-11-21T10:30:16;9.10;99.90
59660;DHT22;45534;52.690;6.268;2023-11-21T10:32:42;9.10;99.90
59660;DHT22;45534;52.690;6.268;2023-11-21T10:35:09;9.10;99.90
59660;DHT22;45534;52.690;6.268;2023-11-21T10:37:37;9.10;99.90
59660;DHT22;45534;52.690;6.268;2023-11-21T10:40:10;9.10;99.90
59660;DHT22;45534;52.690;6.268;2023-11-21T10:42:41;9.10;99.90
59660;DHT22;45534;52.690;6.268;2023-11-21T10:45:08;9.10;99.90
59660;DHT22;45534;52.690;6.268;2023-11-21T10:47:44;9.10;99.90
59660;DHT22;45534;52.690;6.268;2023-11-21T10:50:10;9.10;99.90
59660;DHT22;45534;52.690;6.268;2023-11-21T10:52:38;9.20;99.90
59660;DHT22;45534;52.690;6.268;2023-11-21T10:55:16;9.20;99.90
59660;DHT22;45534;52.690;6.268;2023-11-21T10:57:46;9.20;99.90
59660;DHT22;45534;52.690;6.268;2023-11-21T11:00:14;9.30;99.90
59660;DHT22;45534;52.690;6.268;2023-11-21T11:02:41;9.30;99.90
59660;DHT22;45534;52.690;6.268;2023-11-21T11:05:08;9.30;99.90
59660;DHT22;45534;52.690;6.268;2023-11-21T11:07:38;9.20;99.90
59660;DHT22;45534;52.690;6.268;2023-11-21T11:10:06;9.30;99.90
59660;DHT22;45534;52.690;6.268;2023-11-21T11:12:34;9.30;99.90
59660;DHT22;45534;52.690;6.268;2023-11-21T11:15:01;9.20;99.90
59660;DHT22;45534;52.690;6.268;2023-11-21T11:17:28;9.20;99.90
59660;DHT22;45534;52.690;6.268;2023-11-21T11:19:54;9.10;99.90
59660;DHT22;45534;52.690;6.268;2023-11-21T11:33:48;9.10;99.90
59660;DHT22;45534;52.690;6.268;2023-11-21T11:36:25;9.10;99.90
59660;DHT22;45534;52.690;6.268;2023-11-21T11:38:51;9.00;99.90
59660;DHT22;45534;52.690;6.268;2023-11-21T11:41:25;9.10;99.90
59660;DHT22;45534;52.690;6.268;2023-11-21T11:43:53;9.00;99.90
59660;DHT22;45534;52.690;6.268;2023-11-21T11:46:19;9.00;99.90
59660;DHT22;45534;52.690;6.268;2023-11-21T11:48:48;8.90;99.90
59660;DHT22;45534;52.690;6.268;2023-11-21T11:51:21;8.90;99.90
59660;DHT22;45534;52.690;6.268;2023-11-21T11:53:48;8.80;99.90
59660;DHT22;45534;52.690;6.268;2023-11-21T11:56:31;8.80;99.90
59660;DHT22;45534;52.690;6.268;2023-11-21T11:59:01;8.80;99.90
59660;DHT22;45534;52.690;6.268;2023-11-21T12:01:35;8.80;99.90
59660;DHT22;45534;52.690;6.268;2023-11-21T12:06:52;8.70;99.90
59660;DHT22;45534;52.690;6.268;2023-11-21T12:09:23;8.80;99.90
59660;DHT22;45534;52.690;6.268;2023-11-21T12:11:50;8.80;99.90
59660;DHT22;45534;52.690;6.268;2023-11-21T12:14:16;8.70;99.90
59660;DHT22;45534;52.690;6.268;2023-11-21T12:16:42;8.70;99.90
59660;DHT22;45534;52.690;6.268;2023-11-21T12:19:10;8.70;99.90
59660;DHT22;45534;52.690;6.268;2023-11-21T12:21:36;8.70;99.90
59660;DHT22;45534;52.690;6.268;2023-11-21T12:24:03;8.60;99.90
59660;DHT22;45534;52.690;6.268;2023-11-21T12:26:29;8.60;99.90
59660;DHT22;45534;52.690;6.268;2023-11-21T12:28:55;8.60;99.90
59660;DHT22;45534;52.690;6.268;2023-11-21T12:31:21;8.70;99.90
59660;DHT22;45534;52.690;6.268;2023-11-21T12:33:47;8.80;99.90
59660;DHT22;45534;52.690;6.268;2023-11-21T12:36:13;8.80;99.90
59660;DHT22;45534;52.690;6.268;2023-11-21T12:38:39;8.90;99.90
59660;DHT22;45534;52.690;6.268;2023-11-21T12:41:05;9.00;99.90
59660;DHT22;45534;52.690;6.268;2023-11-21T12:43:32;9.00;99.90
59660;DHT22;45534;52.690;6.268;2023-11-21T12:46:08;9.00;99.90
59660;DHT22;45534;52.690;6.268;2023-11-21T12:48:39;9.00;99.90
59660;DHT22;45534;52.690;6.268;2023-11-21T12:51:06;9.00;99.90
59660;DHT22;45534;52.690;6.268;2023-11-21T12:53:32;9.10;99.90
59660;DHT22;45534;52.690;6.268;2023-11-21T12:56:05;9.10;99.90
59660;DHT22;45534;52.690;6.268;2023-11-21T12:58:31;9.20;99.90
59660;DHT22;45534;52.690;6.268;2023-11-21T13:00:59;9.10;99.90
59660;DHT22;45534;52.690;6.268;2023-11-21T13:03:25;9.10;99.90
59660;DHT22;45534;52.690;6.268;2023-11-21T13:05:51;9.10;99.90
59660;DHT22;45534;52.690;6.268;2023-11-21T13:08:21;9.30;99.90
59660;DHT22;45534;52.690;6.268;2023-11-21T13:10:55;9.80;99.90
59660;DHT22;45534;52.690;6.268;2023-11-21T13:13:22;10.30;99.90
59660;DHT22;45534;52.690;6.268;2023-11-21T13:15:54;10.60;99.90
59660;DHT22;45534;52.690;6.268;2023-11-21T13:18:24;11.10;99.90
59660;DHT22;45534;52.690;6.268;2023-11-21T13:20:50;11.00;99.90
59660;DHT22;45534;52.690;6.268;2023-11-21T13:23:16;10.60;99.90
59660;DHT22;45534;52.690;6.268;2023-11-21T13:25:45;10.20;99.90
59660;DHT22;45534;52.690;6.268;2023-11-21T13:28:11;9.90;99.90
59660;DHT22;45534;52.690;6.268;2023-11-21T13:30:38;9.60;99.90
59660;DHT22;45534;52.690;6.268;2023-11-21T13:33:06;9.30;99.90
59660;DHT22;45534;52.690;6.268;2023-11-21T13:35:34;9.20;99.90
59660;DHT22;45534;52.690;6.268;2023-11-21T13:38:06;9.10;99.90
59660;DHT22;45534;52.690;6.268;2023-11-21T13:40:33;9.10;99.90
59660;DHT22;45534;52.690;6.268;2023-11-21T13:43:05;9.00;99.90
59660;DHT22;45534;52.690;6.268;2023-11-21T13:45:39;9.00;99.90
59660;DHT22;45534;52.690;6.268;2023-11-21T13:48:05;9.00;99.90
59660;DHT22;45534;52.690;6.268;2023-11-21T13:50:42;8.90;99.90
59660;DHT22;45534;52.690;6.268;2023-11-21T13:53:14;8.90;99.90
59660;DHT22;45534;52.690;6.268;2023-11-21T13:55:49;8.80;99.90
59660;DHT22;45534;52.690;6.268;2023-11-21T13:58:17;8.70;99.90
59660;DHT22;45534;52.690;6.268;2023-11-21T14:00:49;8.70;99.90
59660;DHT22;45534;52.690;6.268;2023-11-21T14:03:22;8.70;99.90
59660;DHT22;45534;52.690;6.268;2023-11-21T14:05:58;8.60;99.90
59660;DHT22;45534;52.690;6.268;2023-11-21T14:08:26;8.60;99.90
59660;DHT22;45534;52.690;6.268;2023-11-21T14:10:54;8.60;99.90
59660;DHT22;45534;52.690;6.268;2023-11-21T14:13:25;8.60;99.90
59660;DHT22;45534;52.690;6.268;2023-11-21T14:15:51;8.60;99.90
59660;DHT22;45534;52.690;6.268;2023-11-21T14:18:26;8.50;99.90
59660;DHT22;45534;52.690;6.268;2023-11-21T14:20:56;8.50;99.90
59660;DHT22;45534;52.690;6.268;2023-11-21T14:23:22;8.50;99.90
59660;DHT22;45534;52.690;6.268;2023-11-21T14:25:49;8.50;99.90
59660;DHT22;45534;52.690;6.268;2023-11-21T14:28:18;8.50;99.90
59660;DHT22;45534;52.690;6.268;2023-11-21T14:30:46;8.40;99.90
59660;DHT22;45534;52.690;6.268;2023-11-21T14:33:12;8.40;99.90
59660;DHT22;45534;52.690;6.268;2023-11-21T14:35:38;8.40;99.90
59660;DHT22;45534;52.690;6.268;2023-11-21T14:38:04;8.40;99.90
59660;DHT22;45534;52.690;6.268;2023-11-21T14:40:33;8.40;99.90
59660;DHT22;45534;52.690;6.268;2023-11-21T14:43:02;8.40;99.90
59660;DHT22;45534;52.690;6.268;2023-11-21T14:45:28;8.30;99.90
59660;DHT22;45534;52.690;6.268;2023-11-21T14:47:54;8.30;99.90
59660;DHT22;45534;52.690;6.268;2023-11-21T14:50:35;8.20;99.90
59660;DHT22;45534;52.690;6.268;2023-11-21T14:53:24;8.10;99.90
59660;DHT22;45534;52.690;6.268;2023-11-21T14:56:12;8.10;99.90
59660;DHT22;45534;52.690;6.268;2023-11-21T14:58:46;8.00;99.90
59660;DHT22;45534;52.690;6.268;2023-11-21T15:01:13;8.00;99.90
59660;DHT22;45534;52.690;6.268;2023-11-21T15:03:38;8.00;99.90
59660;DHT22;45534;52.690;6.268;2023-11-21T15:06:15;7.90;99.90
59660;DHT22;45534;52.690;6.268;2023-11-21T15:08:57;7.90;99.90
59660;DHT22;45534;52.690;6.268;2023-11-21T15:11:25;8.00;99.90
59660;DHT22;45534;52.690;6.268;2023-11-21T15:13:57;8.00;99.90
59660;DHT22;45534;52.690;6.268;2023-11-21T15:16:23;8.00;99.90
59660;DHT22;45534;52.690;6.268;2023-11-21T15:18:49;8.00;99.90
59660;DHT22;45534;52.690;6.268;2023-11-21T15:21:14;8.00;99.90
59660;DHT22;45534;52.690;6.268;2023-11-21T15:23:40;8.00;99.90
59660;DHT22;45534;52.690;6.268;2023-11-21T15:26:07;8.00;99.90
59660;DHT22;45534;52.690;6.268;2023-11-21T15:28:35;8.00;99.90
59660;DHT22;45534;52.690;6.268;2023-11-21T15:31:04;8.00;99.90
59660;DHT22;45534;52.690;6.268;2023-11-21T15:33:30;8.00;99.90
59660;DHT22;45534;52.690;6.268;2023-11-21T15:35:56;8.00;99.90
59660;DHT22;45534;52.690;6.268;2023-11-21T15:38:23;8.00;99.90
59660;DHT22;45534;52.690;6.268;2023-11-21T15:40:49;7.90;99.90
59660;DHT22;45534;52.690;6.268;2023-11-21T15:43:16;7.90;99.90
59660;DHT22;45534;52.690;6.268;2023-11-21T15:45:41;7.90;99.90
59660;DHT22;45534;52.690;6.268;2023-11-21T15:48:07;7.90;99.90
59660;DHT22;45534;52.690;6.268;2023-11-21T15:50:35;7.90;99.90
59660;DHT22;45534;52.690;6.268;2023-11-21T15:53:01;7.90;99.90
59660;DHT22;45534;52.690;6.268;2023-11-21T15:55:28;7.90;99.90
59660;DHT22;45534;52.690;6.268;2023-11-21T15:57:54;7.90;99.90
59660;DHT22;45534;52.690;6.268;2023-11-21T16:00:20;7.90;99.90